sensor_id;sensor_type;location;lat;lon;timestamp;P1;durP1;ratioP1;P2;durP2;ratioP2
25129;SDS011;13308;50.860;13.664;2024-01-07T06:40:37;25.20;;;11.68;;
25129;SDS011;13308;50.860;13.664;2024-01-07T06:43:02;26.92;;;10.65;;
25129;SDS011;13308;50.860;13.664;2024-01-07T06:45:28;19.05;;;10.15;;
25129;SDS011;13308;50.860;13.664;2024-01-07T06:47:53;25.85;;;10.80;;
25129;SDS011;13308;50.860;13.664;2024-01-07T06:50:19;16.98;;;9.57;;
25129;SDS011;13308;50.860;13.664;2024-01-07T06:52:45;24.02;;;9.98;;
25129;SDS011;13308;50.860;13.664;2024-01-07T06:55:11;20.75;;;10.25;;
25129;SDS011;13308;50.860;13.664;2024-01-07T06:57:36;26.88;;;11.18;;
25129;SDS011;13308;50.860;13.664;2024-01-07T07:00:02;23.55;;;9.35;;
25129;SDS011;13308;50.860;13.664;2024-01-07T07:02:28;18.15;;;8.63;;
25129;SDS011;13308;50.860;13.664;2024-01-07T07:04:53;27.98;;;10.13;;
25129;SDS011;13308;50.860;13.664;2024-01-07T07:07:18;20.10;;;9.25;;
25129;SDS011;13308;50.860;13.664;2024-01-07T07:09:44;19.80;;;8.95;;
25129;SDS011;13308;50.860;13.664;2024-01-07T07:12:11;18.73;;;8.75;;
25129;SDS011;13308;50.860;13.664;2024-01-07T07:14:37;27.23;;;8.85;;
25129;SDS011;13308;50.860;13.664;2024-01-07T07:17:02;14.77;;;8.57;;
25129;SDS011;13308;50.860;13.664;2024-01-07T07:19:28;17.92;;;7.85;;
25129;SDS011;13308;50.860;13.664;2024-01-07T07:21:53;18.58;;;8.38;;
25129;SDS011;13308;50.860;13.664;2024-01-07T07:24:18;15.73;;;8.18;;
25129;SDS011;13308;50.860;13.664;2024-01-07T07:26:44;16.92;;;8.63;;
25129;SDS011;13308;50.860;13.664;2024-01-07T07:29:09;16.20;;;8.13;;
25129;SDS011;13308;50.860;13.664;2024-01-07T07:31:35;20.05;;;9.57;;
25129;SDS011;13308;50.860;13.664;2024-01-07T07:34:03;13.50;;;7.65;;
25129;SDS011;13308;50.860;13.664;2024-01-07T07:36:37;14.25;;;7.30;;
25129;SDS011;13308;50.860;13.664;2024-01-07T07:39:04;19.85;;;8.25;;
25129;SDS011;13308;50.860;13.664;2024-01-07T07:41:30;15.38;;;7.30;;
25129;SDS011;13308;50.860;13.664;2024-01-07T07:43:55;16.45;;;7.75;;
25129;SDS011;13308;50.860;13.664;2024-01-07T07:46:20;12.60;;;7.70;;
25129;SDS011;13308;50.860;13.664;2024-01-07T07:48:46;11.00;;;7.10;;
25129;SDS011;13308;50.860;13.664;2024-01-07T07:51:12;17.50;;;7.65;;
25129;SDS011;13308;50.860;13.664;2024-01-07T07:53:38;14.60;;;7.75;;
25129;SDS011;13308;50.860;13.664;2024-01-07T07:56:05;13.93;;;7.28;;
25129;SDS011;13308;50.860;13.664;2024-01-07T07:58:30;14.30;;;7.75;;
25129;SDS011;13308;50.860;13.664;2024-01-07T08:00:56;17.45;;;7.70;;
25129;SDS011;13308;50.860;13.664;2024-01-07T08:03:21;12.82;;;6.60;;
25129;SDS011;13308;50.860;13.664;2024-01-07T08:05:46;13.13;;;7.15;;
25129;SDS011;13308;50.860;13.664;2024-01-07T08:08:12;10.88;;;6.72;;
25129;SDS011;13308;50.860;13.664;2024-01-07T08:10:37;12.05;;;6.85;;
25129;SDS011;13308;50.860;13.664;2024-01-07T08:13:02;12.38;;;6.82;;
25129;SDS011;13308;50.860;13.664;2024-01-07T08:15:28;10.27;;;6.05;;
25129;SDS011;13308;50.860;13.664;2024-01-07T08:17:53;13.38;;;6.20;;
25129;SDS011;13308;50.860;13.664;2024-01-07T08:20:18;13.60;;;5.80;;
25129;SDS011;13308;50.860;13.664;2024-01-07T08:22:46;10.10;;;6.20;;
25129;SDS011;13308;50.860;13.664;2024-01-07T08:25:12;12.18;;;7.03;;
25129;SDS011;13308;50.860;13.664;2024-01-07T08:27:40;12.15;;;6.15;;
25129;SDS011;13308;50.860;13.664;2024-01-07T08:30:06;11.55;;;5.90;;
25129;SDS011;13308;50.860;13.664;2024-01-07T08:32:32;13.18;;;6.30;;
25129;SDS011;13308;50.860;13.664;2024-01-07T08:34:57;8.68;;;6.20;;
25129;SDS011;13308;50.860;13.664;2024-01-07T08:37:22;10.35;;;5.90;;
25129;SDS011;13308;50.860;13.664;2024-01-07T08:39:48;10.88;;;6.10;;
25129;SDS011;13308;50.860;13.664;2024-01-07T08:42:13;9.90;;;6.55;;
25129;SDS011;13308;50.860;13.664;2024-01-07T08:44:38;8.40;;;6.10;;
25129;SDS011;13308;50.860;13.664;2024-01-07T08:47:04;9.50;;;6.00;;
25129;SDS011;13308;50.860;13.664;2024-01-07T08:49:30;8.95;;;6.05;;
25129;SDS011;13308;50.860;13.664;2024-01-07T08:51:58;10.90;;;6.55;;
25129;SDS011;13308;50.860;13.664;2024-01-07T08:54:23;12.10;;;6.47;;
25129;SDS011;13308;50.860;13.664;2024-01-07T08:56:48;8.23;;;5.47;;
25129;SDS011;13308;50.860;13.664;2024-01-07T08:59:14;10.57;;;6.03;;
25129;SDS011;13308;50.860;13.664;2024-01-07T09:01:39;13.32;;;5.30;;
25129;SDS011;13308;50.860;13.664;2024-01-07T09:04:05;10.07;;;6.13;;
25129;SDS011;13308;50.860;13.664;2024-01-07T09:06:30;13.68;;;5.45;;
25129;SDS011;13308;50.860;13.664;2024-01-07T09:08:57;10.20;;;5.75;;
25129;SDS011;13308;50.860;13.664;2024-01-07T09:11:22;16.05;;;6.32;;
25129;SDS011;13308;50.860;13.664;2024-01-07T09:13:49;8.27;;;5.40;;
25129;SDS011;13308;50.860;13.664;2024-01-07T09:16:15;11.73;;;5.43;;
25129;SDS011;13308;50.860;13.664;2024-01-07T09:18:40;8.43;;;5.70;;
25129;SDS011;13308;50.860;13.664;2024-01-07T09:21:06;10.93;;;5.53;;
25129;SDS011;13308;50.860;13.664;2024-01-07T09:23:31;10.85;;;6.05;;
25129;SDS011;13308;50.860;13.664;2024-01-07T09:25:58;9.57;;;5.63;;
25129;SDS011;13308;50.860;13.664;2024-01-07T09:28:24;8.27;;;4.95;;
25129;SDS011;13308;50.860;13.664;2024-01-07T09:30:49;8.05;;;6.05;;
25129;SDS011;13308;50.860;13.664;2024-01-07T09:33:15;16.67;;;10.57;;
25129;SDS011;13308;50.860;13.664;2024-01-07T09:35:40;11.50;;;6.60;;
25129;SDS011;13308;50.860;13.664;2024-01-07T09:38:06;71.05;;;25.90;;
25129;SDS011;13308;50.860;13.664;2024-01-07T09:40:31;55.40;;;24.35;;
25129;SDS011;13308;50.860;13.664;2024-01-07T09:42:57;38.13;;;21.52;;
25129;SDS011;13308;50.860;13.664;2024-01-07T09:45:24;7.32;;;4.90;;
25129;SDS011;13308;50.860;13.664;2024-01-07T09:47:50;6.50;;;4.85;;
25129;SDS011;13308;50.860;13.664;2024-01-07T09:50:15;8.48;;;5.32;;
25129;SDS011;13308;50.860;13.664;2024-01-07T09:52:42;10.30;;;4.28;;
25129;SDS011;13308;50.860;13.664;2024-01-07T09:55:09;23.10;;;10.48;;
25129;SDS011;13308;50.860;13.664;2024-01-07T09:57:38;32.35;;;15.65;;
25129;SDS011;13308;50.860;13.664;2024-01-07T10:00:05;5.88;;;3.88;;
25129;SDS011;13308;50.860;13.664;2024-01-07T10:02:37;7.57;;;5.15;;
25129;SDS011;13308;50.860;13.664;2024-01-07T10:05:02;66.80;;;33.33;;
25129;SDS011;13308;50.860;13.664;2024-01-07T10:07:28;4.75;;;3.80;;
25129;SDS011;13308;50.860;13.664;2024-01-07T10:09:53;154.85;;;73.95;;
25129;SDS011;13308;50.860;13.664;2024-01-07T10:12:24;55.33;;;25.45;;
25129;SDS011;13308;50.860;13.664;2024-01-07T10:14:49;43.35;;;21.05;;
25129;SDS011;13308;50.860;13.664;2024-01-07T10:17:17;67.90;;;32.78;;
25129;SDS011;13308;50.860;13.664;2024-01-07T10:19:44;100.22;;;43.15;;
25129;SDS011;13308;50.860;13.664;2024-01-07T10:22:12;94.45;;;39.00;;
25129;SDS011;13308;50.860;13.664;2024-01-07T10:24:39;101.38;;;37.53;;
25129;SDS011;13308;50.860;13.664;2024-01-07T10:27:06;80.95;;;34.17;;
25129;SDS011;13308;50.860;13.664;2024-01-07T10:29:32;15.05;;;8.90;;
25129;SDS011;13308;50.860;13.664;2024-01-07T10:31:58;11.23;;;6.78;;
25129;SDS011;13308;50.860;13.664;2024-01-07T10:34:24;33.28;;;16.17;;
25129;SDS011;13308;50.860;13.664;2024-01-07T10:36:54;9.23;;;6.38;;
25129;SDS011;13308;50.860;13.664;2024-01-07T10:39:21;5.47;;;4.15;;
25129;SDS011;13308;50.860;13.664;2024-01-07T10:41:47;8.68;;;6.03;;
25129;SDS011;13308;50.860;13.664;2024-01-07T10:44:12;14.70;;;7.88;;
25129;SDS011;13308;50.860;13.664;2024-01-07T10:46:38;7.85;;;5.80;;
25129;SDS011;13308;50.860;13.664;2024-01-07T10:49:07;5.47;;;4.63;;
25129;SDS011;13308;50.860;13.664;2024-01-07T10:51:41;6.10;;;4.95;;
25129;SDS011;13308;50.860;13.664;2024-01-07T10:54:08;5.78;;;4.43;;
25129;SDS011;13308;50.860;13.664;2024-01-07T10:56:46;8.20;;;5.65;;
25129;SDS011;13308;50.860;13.664;2024-01-07T10:59:15;6.53;;;5.13;;
25129;SDS011;13308;50.860;13.664;2024-01-07T11:01:42;6.35;;;4.65;;
25129;SDS011;13308;50.860;13.664;2024-01-07T11:09:40;6.70;;;5.05;;
25129;SDS011;13308;50.860;13.664;2024-01-07T11:16:02;4.75;;;3.83;;
25129;SDS011;13308;50.860;13.664;2024-01-07T11:18:28;6.68;;;4.45;;
25129;SDS011;13308;50.860;13.664;2024-01-07T11:21:00;5.47;;;4.43;;
25129;SDS011;13308;50.860;13.664;2024-01-07T11:23:35;5.45;;;3.88;;
25129;SDS011;13308;50.860;13.664;2024-01-07T11:26:02;5.68;;;3.92;;
25129;SDS011;13308;50.860;13.664;2024-01-07T11:28:47;6.60;;;3.75;;
25129;SDS011;13308;50.860;13.664;2024-01-07T11:31:19;5.53;;;3.72;;
25129;SDS011;13308;50.860;13.664;2024-01-07T11:33:46;4.57;;;3.80;;
25129;SDS011;13308;50.860;13.664;2024-01-07T11:36:13;5.68;;;3.25;;
25129;SDS011;13308;50.860;13.664;2024-01-07T11:38:43;5.75;;;3.70;;
25129;SDS011;13308;50.860;13.664;2024-01-07T11:41:09;5.72;;;3.45;;
25129;SDS011;13308;50.860;13.664;2024-01-07T11:43:36;6.10;;;3.67;;
25129;SDS011;13308;50.860;13.664;2024-01-07T11:46:02;3.72;;;3.30;;
25129;SDS011;13308;50.860;13.664;2024-01-07T11:48:28;4.03;;;3.30;;
25129;SDS011;13308;50.860;13.664;2024-01-07T11:50:53;5.32;;;4.47;;
25129;SDS011;13308;50.860;13.664;2024-01-07T11:53:18;5.13;;;3.83;;
25129;SDS011;13308;50.860;13.664;2024-01-07T11:55:44;8.20;;;3.78;;
25129;SDS011;13308;50.860;13.664;2024-01-07T11:58:10;5.30;;;3.75;;
25129;SDS011;13308;50.860;13.664;2024-01-07T12:00:35;6.65;;;3.13;;
25129;SDS011;13308;50.860;13.664;2024-01-07T12:03:01;5.85;;;3.40;;
25129;SDS011;13308;50.860;13.664;2024-01-07T12:05:27;6.55;;;3.42;;
25129;SDS011;13308;50.860;13.664;2024-01-07T12:07:53;4.00;;;2.97;;
25129;SDS011;13308;50.860;13.664;2024-01-07T12:10:19;5.50;;;3.65;;
25129;SDS011;13308;50.860;13.664;2024-01-07T12:12:44;6.75;;;3.65;;
25129;SDS011;13308;50.860;13.664;2024-01-07T12:15:10;4.82;;;3.00;;
25129;SDS011;13308;50.860;13.664;2024-01-07T12:17:39;7.78;;;3.30;;
25129;SDS011;13308;50.860;13.664;2024-01-07T12:20:08;7.05;;;3.15;;
25129;SDS011;13308;50.860;13.664;2024-01-07T12:23:37;3.88;;;2.80;;
25129;SDS011;13308;50.860;13.664;2024-01-07T12:26:09;4.00;;;2.55;;
25129;SDS011;13308;50.860;13.664;2024-01-07T12:28:35;4.05;;;2.53;;
25129;SDS011;13308;50.860;13.664;2024-01-07T12:31:02;3.00;;;2.33;;
25129;SDS011;13308;50.860;13.664;2024-01-07T12:33:28;4.35;;;3.00;;
25129;SDS011;13308;50.860;13.664;2024-01-07T12:35:55;3.65;;;2.75;;
25129;SDS011;13308;50.860;13.664;2024-01-07T12:38:23;8.63;;;3.75;;
25129;SDS011;13308;50.860;13.664;2024-01-07T12:40:50;5.75;;;2.90;;
25129;SDS011;13308;50.860;13.664;2024-01-07T12:43:15;5.35;;;3.42;;
25129;SDS011;13308;50.860;13.664;2024-01-07T12:45:41;4.15;;;2.97;;
25129;SDS011;13308;50.860;13.664;2024-01-07T12:48:06;11.10;;;4.90;;
25129;SDS011;13308;50.860;13.664;2024-01-07T12:50:31;3.88;;;3.15;;
25129;SDS011;13308;50.860;13.664;2024-01-07T12:52:57;2.85;;;2.53;;
25129;SDS011;13308;50.860;13.664;2024-01-07T12:55:24;3.90;;;2.83;;
25129;SDS011;13308;50.860;13.664;2024-01-07T12:57:50;3.17;;;2.08;;
25129;SDS011;13308;50.860;13.664;2024-01-07T13:00:16;5.43;;;3.00;;
25129;SDS011;13308;50.860;13.664;2024-01-07T13:02:42;5.53;;;2.72;;
25129;SDS011;13308;50.860;13.664;2024-01-07T13:05:08;4.88;;;2.78;;
25129;SDS011;13308;50.860;13.664;2024-01-07T13:07:33;3.80;;;2.70;;
25129;SDS011;13308;50.860;13.664;2024-01-07T13:09:59;5.90;;;3.35;;
25129;SDS011;13308;50.860;13.664;2024-01-07T13:12:25;6.25;;;4.75;;
25129;SDS011;13308;50.860;13.664;2024-01-07T13:14:51;8.40;;;3.67;;
25129;SDS011;13308;50.860;13.664;2024-01-07T13:17:17;4.10;;;3.40;;
25129;SDS011;13308;50.860;13.664;2024-01-07T13:19:42;5.57;;;4.00;;
25129;SDS011;13308;50.860;13.664;2024-01-07T13:22:08;9.68;;;4.55;;
25129;SDS011;13308;50.860;13.664;2024-01-07T13:24:34;5.00;;;3.33;;
25129;SDS011;13308;50.860;13.664;2024-01-07T13:26:59;6.55;;;3.85;;
25129;SDS011;13308;50.860;13.664;2024-01-07T13:29:24;5.00;;;3.83;;
25129;SDS011;13308;50.860;13.664;2024-01-07T13:31:50;11.48;;;9.02;;
25129;SDS011;13308;50.860;13.664;2024-01-07T13:34:15;8.88;;;6.55;;
25129;SDS011;13308;50.860;13.664;2024-01-07T13:36:43;4.65;;;3.72;;
25129;SDS011;13308;50.860;13.664;2024-01-07T13:39:09;4.45;;;2.88;;
25129;SDS011;13308;50.860;13.664;2024-01-07T13:41:34;3.75;;;2.88;;
25129;SDS011;13308;50.860;13.664;2024-01-07T13:44:00;4.55;;;3.10;;
25129;SDS011;13308;50.860;13.664;2024-01-07T13:46:25;4.88;;;3.60;;
25129;SDS011;13308;50.860;13.664;2024-01-07T13:48:51;5.38;;;3.58;;
25129;SDS011;13308;50.860;13.664;2024-01-07T13:51:17;21.30;;;6.90;;
25129;SDS011;13308;50.860;13.664;2024-01-07T13:53:42;16.40;;;4.95;;
25129;SDS011;13308;50.860;13.664;2024-01-07T13:56:10;10.00;;;3.45;;
25129;SDS011;13308;50.860;13.664;2024-01-07T13:58:36;5.40;;;2.50;;
25129;SDS011;13308;50.860;13.664;2024-01-07T14:01:02;5.50;;;2.63;;
25129;SDS011;13308;50.860;13.664;2024-01-07T14:03:28;4.55;;;3.03;;
25129;SDS011;13308;50.860;13.664;2024-01-07T14:05:55;5.43;;;3.22;;
25129;SDS011;13308;50.860;13.664;2024-01-07T14:08:20;3.97;;;2.75;;
25129;SDS011;13308;50.860;13.664;2024-01-07T14:10:46;2.80;;;2.55;;
25129;SDS011;13308;50.860;13.664;2024-01-07T14:13:11;6.72;;;2.95;;
25129;SDS011;13308;50.860;13.664;2024-01-07T14:15:36;4.57;;;2.55;;
25129;SDS011;13308;50.860;13.664;2024-01-07T14:18:02;2.55;;;2.35;;
25129;SDS011;13308;50.860;13.664;2024-01-07T14:20:27;4.75;;;3.35;;
25129;SDS011;13308;50.860;13.664;2024-01-07T14:22:53;4.65;;;2.80;;
25129;SDS011;13308;50.860;13.664;2024-01-07T14:25:19;6.22;;;2.97;;
25129;SDS011;13308;50.860;13.664;2024-01-07T14:27:44;4.60;;;2.72;;
25129;SDS011;13308;50.860;13.664;2024-01-07T14:30:10;3.60;;;2.95;;
25129;SDS011;13308;50.860;13.664;2024-01-07T14:32:35;3.10;;;2.40;;
25129;SDS011;13308;50.860;13.664;2024-01-07T14:35:01;2.70;;;2.50;;
25129;SDS011;13308;50.860;13.664;2024-01-07T14:37:27;2.88;;;2.28;;
25129;SDS011;13308;50.860;13.664;2024-01-07T14:39:53;3.58;;;2.78;;
25129;SDS011;13308;50.860;13.664;2024-01-07T14:42:18;6.85;;;3.00;;
25129;SDS011;13308;50.860;13.664;2024-01-07T14:44:43;3.00;;;2.67;;
25129;SDS011;13308;50.860;13.664;2024-01-07T14:47:09;2.50;;;1.95;;
25129;SDS011;13308;50.860;13.664;2024-01-07T14:49:34;4.10;;;2.60;;
25129;SDS011;13308;50.860;13.664;2024-01-07T14:51:59;3.33;;;2.72;;
25129;SDS011;13308;50.860;13.664;2024-01-07T14:54:25;3.00;;;2.60;;
25129;SDS011;13308;50.860;13.664;2024-01-07T14:56:50;4.63;;;2.30;;
25129;SDS011;13308;50.860;13.664;2024-01-07T14:59:16;3.95;;;2.30;;
25129;SDS011;13308;50.860;13.664;2024-01-07T15:01:41;5.35;;;2.50;;
25129;SDS011;13308;50.860;13.664;2024-01-07T15:04:08;4.18;;;2.40;;
25129;SDS011;13308;50.860;13.664;2024-01-07T15:06:41;3.08;;;2.20;;
25129;SDS011;13308;50.860;13.664;2024-01-07T15:09:07;2.78;;;2.08;;
25129;SDS011;13308;50.860;13.664;2024-01-07T15:11:33;2.45;;;1.95;;
25129;SDS011;13308;50.860;13.664;2024-01-07T15:13:59;2.65;;;2.45;;
25129;SDS011;13308;50.860;13.664;2024-01-07T15:16:25;6.53;;;2.88;;
25129;SDS011;13308;50.860;13.664;2024-01-07T15:18:50;3.08;;;2.25;;
25129;SDS011;13308;50.860;13.664;2024-01-07T15:21:16;3.40;;;2.15;;
25129;SDS011;13308;50.860;13.664;2024-01-07T15:23:42;2.97;;;2.10;;
25129;SDS011;13308;50.860;13.664;2024-01-07T15:26:07;3.47;;;2.10;;
25129;SDS011;13308;50.860;13.664;2024-01-07T15:28:32;2.58;;;2.30;;
25129;SDS011;13308;50.860;13.664;2024-01-07T15:30:59;2.42;;;2.22;;
25129;SDS011;13308;50.860;13.664;2024-01-07T15:33:24;2.40;;;2.00;;
25129;SDS011;13308;50.860;13.664;2024-01-07T15:35:50;3.28;;;2.10;;
25129;SDS011;13308;50.860;13.664;2024-01-07T15:38:15;2.35;;;1.90;;
25129;SDS011;13308;50.860;13.664;2024-01-07T15:40:40;3.50;;;2.60;;
25129;SDS011;13308;50.860;13.664;2024-01-07T15:43:07;3.75;;;2.30;;
25129;SDS011;13308;50.860;13.664;2024-01-07T15:45:33;4.78;;;2.45;;
25129;SDS011;13308;50.860;13.664;2024-01-07T15:47:59;2.65;;;2.40;;
25129;SDS011;13308;50.860;13.664;2024-01-07T15:50:25;4.65;;;3.15;;
25129;SDS011;13308;50.860;13.664;2024-01-07T15:52:50;3.08;;;2.22;;
25129;SDS011;13308;50.860;13.664;2024-01-07T15:55:15;4.32;;;2.33;;
25129;SDS011;13308;50.860;13.664;2024-01-07T15:57:41;3.20;;;2.15;;
25129;SDS011;13308;50.860;13.664;2024-01-07T16:00:09;3.47;;;2.47;;
25129;SDS011;13308;50.860;13.664;2024-01-07T16:02:35;2.60;;;2.40;;
25129;SDS011;13308;50.860;13.664;2024-01-07T16:05:01;3.33;;;2.20;;
25129;SDS011;13308;50.860;13.664;2024-01-07T16:07:27;5.97;;;2.53;;
25129;SDS011;13308;50.860;13.664;2024-01-07T16:09:52;3.58;;;3.28;;
25129;SDS011;13308;50.860;13.664;2024-01-07T16:12:18;3.00;;;2.30;;
25129;SDS011;13308;50.860;13.664;2024-01-07T16:14:43;3.10;;;2.72;;
25129;SDS011;13308;50.860;13.664;2024-01-07T16:17:08;7.75;;;3.20;;
25129;SDS011;13308;50.860;13.664;2024-01-07T16:19:34;4.32;;;2.60;;
25129;SDS011;13308;50.860;13.664;2024-01-07T16:21:59;3.95;;;2.50;;
25129;SDS011;13308;50.860;13.664;2024-01-07T16:24:25;4.72;;;2.70;;
25129;SDS011;13308;50.860;13.664;2024-01-07T16:26:50;2.65;;;2.45;;
25129;SDS011;13308;50.860;13.664;2024-01-07T16:29:16;5.28;;;2.85;;
25129;SDS011;13308;50.860;13.664;2024-01-07T16:31:41;3.28;;;2.47;;
25129;SDS011;13308;50.860;13.664;2024-01-07T16:34:06;3.33;;;2.78;;
25129;SDS011;13308;50.860;13.664;2024-01-07T16:36:32;3.95;;;3.00;;
25129;SDS011;13308;50.860;13.664;2024-01-07T16:38:57;5.05;;;3.35;;
25129;SDS011;13308;50.860;13.664;2024-01-07T16:41:22;3.92;;;2.35;;
25129;SDS011;13308;50.860;13.664;2024-01-07T16:43:48;2.67;;;2.33;;
25129;SDS011;13308;50.860;13.664;2024-01-07T16:46:13;4.35;;;2.40;;
25129;SDS011;13308;50.860;13.664;2024-01-07T16:48:39;2.92;;;2.58;;
25129;SDS011;13308;50.860;13.664;2024-01-07T16:51:04;3.35;;;2.15;;
25129;SDS011;13308;50.860;13.664;2024-01-07T16:53:30;3.97;;;2.90;;
25129;SDS011;13308;50.860;13.664;2024-01-07T16:55:56;8.68;;;5.28;;
25129;SDS011;13308;50.860;13.664;2024-01-07T16:58:21;4.28;;;3.22;;
25129;SDS011;13308;50.860;13.664;2024-01-07T17:00:47;4.00;;;2.85;;
25129;SDS011;13308;50.860;13.664;2024-01-07T17:03:12;4.38;;;2.97;;
25129;SDS011;13308;50.860;13.664;2024-01-07T17:05:38;3.33;;;3.03;;
25129;SDS011;13308;50.860;13.664;2024-01-07T17:08:03;3.92;;;3.30;;
25129;SDS011;13308;50.860;13.664;2024-01-07T17:10:29;4.72;;;2.58;;
25129;SDS011;13308;50.860;13.664;2024-01-07T17:12:54;3.42;;;3.13;;
25129;SDS011;13308;50.860;13.664;2024-01-07T17:15:20;3.88;;;2.85;;
25129;SDS011;13308;50.860;13.664;2024-01-07T17:17:45;5.53;;;3.30;;
25129;SDS011;13308;50.860;13.664;2024-01-07T17:20:12;4.30;;;3.00;;
25129;SDS011;13308;50.860;13.664;2024-01-07T17:22:38;5.25;;;3.20;;
25129;SDS011;13308;50.860;13.664;2024-01-07T17:25:05;5.43;;;2.65;;
25129;SDS011;13308;50.860;13.664;2024-01-07T17:27:31;4.95;;;3.72;;
25129;SDS011;13308;50.860;13.664;2024-01-07T17:29:57;3.47;;;2.60;;
25129;SDS011;13308;50.860;13.664;2024-01-07T17:32:22;6.75;;;4.45;;
25129;SDS011;13308;50.860;13.664;2024-01-07T17:34:49;4.18;;;2.88;;
25129;SDS011;13308;50.860;13.664;2024-01-07T17:37:15;4.07;;;2.70;;
25129;SDS011;13308;50.860;13.664;2024-01-07T17:39:40;3.58;;;2.47;;
25129;SDS011;13308;50.860;13.664;2024-01-07T17:42:07;2.35;;;2.08;;
25129;SDS011;13308;50.860;13.664;2024-01-07T17:44:33;2.72;;;2.25;;
25129;SDS011;13308;50.860;13.664;2024-01-07T17:46:58;2.42;;;2.10;;
25129;SDS011;13308;50.860;13.664;2024-01-07T17:49:24;3.67;;;2.90;;
25129;SDS011;13308;50.860;13.664;2024-01-07T17:51:49;5.65;;;2.88;;
25129;SDS011;13308;50.860;13.664;2024-01-07T17:54:14;4.88;;;2.72;;
25129;SDS011;13308;50.860;13.664;2024-01-07T17:56:40;4.53;;;3.30;;
25129;SDS011;13308;50.860;13.664;2024-01-07T17:59:08;3.25;;;2.67;;
25129;SDS011;13308;50.860;13.664;2024-01-07T18:01:33;7.68;;;3.55;;
25129;SDS011;13308;50.860;13.664;2024-01-07T18:03:58;3.38;;;2.42;;
25129;SDS011;13308;50.860;13.664;2024-01-07T18:06:24;3.28;;;2.60;;
25129;SDS011;13308;50.860;13.664;2024-01-07T18:08:50;3.78;;;2.22;;
25129;SDS011;13308;50.860;13.664;2024-01-07T18:11:16;5.05;;;3.00;;
25129;SDS011;13308;50.860;13.664;2024-01-07T18:13:41;3.53;;;2.60;;
25129;SDS011;13308;50.860;13.664;2024-01-07T18:16:06;4.40;;;3.20;;
25129;SDS011;13308;50.860;13.664;2024-01-07T18:18:34;5.82;;;2.88;;
25129;SDS011;13308;50.860;13.664;2024-01-07T18:21:00;5.57;;;3.13;;
25129;SDS011;13308;50.860;13.664;2024-01-07T18:23:26;3.22;;;2.63;;
25129;SDS011;13308;50.860;13.664;2024-01-07T18:25:52;3.95;;;2.90;;
25129;SDS011;13308;50.860;13.664;2024-01-07T18:28:17;3.03;;;2.72;;
25129;SDS011;13308;50.860;13.664;2024-01-07T18:30:43;2.95;;;2.55;;
25129;SDS011;13308;50.860;13.664;2024-01-07T18:33:09;2.92;;;2.60;;
25129;SDS011;13308;50.860;13.664;2024-01-07T18:35:34;3.35;;;2.45;;
25129;SDS011;13308;50.860;13.664;2024-01-07T18:38:01;6.65;;;2.72;;
25129;SDS011;13308;50.860;13.664;2024-01-07T18:40:27;4.72;;;3.22;;
25129;SDS011;13308;50.860;13.664;2024-01-07T18:42:52;3.83;;;2.90;;
25129;SDS011;13308;50.860;13.664;2024-01-07T18:45:18;5.90;;;3.13;;
25129;SDS011;13308;50.860;13.664;2024-01-07T18:47:43;5.60;;;3.10;;
25129;SDS011;13308;50.860;13.664;2024-01-07T18:50:09;4.88;;;2.78;;
25129;SDS011;13308;50.860;13.664;2024-01-07T18:52:34;4.57;;;3.83;;
25129;SDS011;13308;50.860;13.664;2024-01-07T18:54:59;3.50;;;2.80;;
25129;SDS011;13308;50.860;13.664;2024-01-07T18:57:27;3.17;;;2.75;;
25129;SDS011;13308;50.860;13.664;2024-01-07T18:59:53;8.32;;;3.35;;
25129;SDS011;13308;50.860;13.664;2024-01-07T19:02:18;4.88;;;3.15;;
25129;SDS011;13308;50.860;13.664;2024-01-07T19:04:45;3.33;;;2.88;;
25129;SDS011;13308;50.860;13.664;2024-01-07T19:07:10;4.78;;;3.35;;
25129;SDS011;13308;50.860;13.664;2024-01-07T19:09:35;7.03;;;3.03;;
25129;SDS011;13308;50.860;13.664;2024-01-07T19:12:02;4.18;;;3.60;;
25129;SDS011;13308;50.860;13.664;2024-01-07T19:14:28;4.20;;;3.38;;
25129;SDS011;13308;50.860;13.664;2024-01-07T19:16:53;3.83;;;3.20;;
25129;SDS011;13308;50.860;13.664;2024-01-07T19:19:19;4.88;;;3.42;;
25129;SDS011;13308;50.860;13.664;2024-01-07T19:21:44;4.35;;;3.10;;
25129;SDS011;13308;50.860;13.664;2024-01-07T19:24:10;4.15;;;3.50;;
25129;SDS011;13308;50.860;13.664;2024-01-07T19:26:35;5.47;;;3.40;;
25129;SDS011;13308;50.860;13.664;2024-01-07T19:29:02;4.60;;;3.40;;
25129;SDS011;13308;50.860;13.664;2024-01-07T19:31:29;5.22;;;3.30;;
25129;SDS011;13308;50.860;13.664;2024-01-07T19:33:54;5.93;;;3.60;;
